createdAt,value
2023-03-05T00:02:06.629Z,-4.84
2023-03-05T00:07:12.424Z,-4.89
2023-03-05T00:12:15.529Z,-4.92
2023-03-05T00:17:18.950Z,-4.96
2023-03-05T00:22:22.113Z,-5.01
2023-03-05T00:27:25.060Z,-5.05
2023-03-05T00:32:28.252Z,-5.08
2023-03-05T00:37:31.389Z,-5.11
2023-03-05T00:42:38.851Z,-5.11
2023-03-05T00:47:41.906Z,-5.09
2023-03-05T00:52:45.011Z,-5.04
2023-03-05T00:57:48.126Z,-4.96
2023-03-05T01:02:51.100Z,-4.91
2023-03-05T01:07:55.967Z,-4.85
2023-03-05T01:12:58.884Z,-4.80
2023-03-05T01:18:01.870Z,-4.79
2023-03-05T01:23:04.867Z,-4.80
2023-03-05T01:28:08.867Z,-4.80
2023-03-05T01:33:11.805Z,-4.81
2023-03-05T01:38:16.971Z,-4.82
2023-03-05T01:43:28.767Z,-4.86
2023-03-05T01:48:31.781Z,-4.87
2023-03-05T01:53:34.880Z,-4.89
2023-03-05T01:58:39.923Z,-4.93
2023-03-05T02:03:43.190Z,-4.93
2023-03-05T02:08:46.156Z,-4.94
2023-03-05T02:13:49.575Z,-4.94
2023-03-05T02:18:52.686Z,-4.95
2023-03-05T02:23:55.692Z,-4.95
2023-03-05T02:29:02.249Z,-4.92
2023-03-05T02:34:06.469Z,-4.91
2023-03-05T02:39:10.034Z,-4.91
2023-03-05T02:44:12.940Z,-4.94
2023-03-05T02:49:16.049Z,-4.97
2023-03-05T02:54:19.059Z,-4.99
2023-03-05T02:59:22.166Z,-5.04
2023-03-05T03:04:26.094Z,-5.10
2023-03-05T03:09:29.469Z,-5.13
2023-03-05T03:14:39.298Z,-5.14
2023-03-05T03:19:43.385Z,-5.13
2023-03-05T03:24:46.281Z,-5.09
2023-03-05T03:29:49.424Z,-4.96
2023-03-05T03:34:52.430Z,-4.75
2023-03-05T03:39:55.445Z,-4.52
2023-03-05T03:44:58.546Z,-4.28
2023-03-05T03:50:01.662Z,-4.06
2023-03-05T03:55:05.128Z,-3.86
2023-03-05T04:00:09.728Z,-3.69
2023-03-05T04:05:12.725Z,-3.59
2023-03-05T04:10:15.728Z,-3.56
2023-03-05T04:15:19.054Z,-3.58
2023-03-05T04:20:21.948Z,-3.64
2023-03-05T04:25:24.884Z,-3.73
2023-03-05T04:30:27.850Z,-3.83
2023-03-05T04:35:31.119Z,-3.96
2023-03-05T04:40:34.653Z,-4.12
2023-03-05T04:45:40.711Z,-4.27
2023-03-05T04:50:43.767Z,-4.41
2023-03-05T04:55:46.910Z,-4.52
2023-03-05T05:00:49.887Z,-4.62
2023-03-05T05:05:57.194Z,-4.72
2023-03-05T05:11:03.014Z,-4.81
2023-03-05T05:16:09.299Z,-4.88
2023-03-05T05:21:14.305Z,-4.93
2023-03-05T05:26:17.311Z,-4.96
2023-03-05T05:31:20.319Z,-4.97
2023-03-05T05:36:23.426Z,-4.92
2023-03-05T05:41:26.433Z,-4.13
2023-03-05T05:46:29.669Z,-3.09
2023-03-05T05:51:32.656Z,-2.27
2023-03-05T05:56:35.782Z,-0.70
2023-03-05T06:01:38.897Z,-0.80
2023-03-05T06:06:42.182Z,-1.36
2023-03-05T06:11:45.177Z,-1.87
2023-03-05T06:16:48.445Z,-2.27
2023-03-05T06:21:51.508Z,-0.99
2023-03-05T06:26:54.520Z,0.16
2023-03-05T06:31:57.673Z,1.04
2023-03-05T06:37:00.738Z,2.69
2023-03-05T06:42:03.739Z,4.19
2023-03-05T06:47:09.418Z,5.33
2023-03-05T06:52:13.029Z,6.11
2023-03-05T06:57:16.036Z,6.68
2023-03-05T07:02:19.489Z,7.08
2023-03-05T07:07:22.663Z,7.43
2023-03-05T07:12:25.766Z,7.74
2023-03-05T07:17:28.781Z,8.06
2023-03-05T07:22:32.204Z,8.27
2023-03-05T07:27:37.147Z,8.35
2023-03-05T07:32:40.455Z,8.43
2023-03-05T07:37:43.584Z,8.53
2023-03-05T07:42:46.468Z,8.66
2023-03-05T07:47:51.070Z,8.77
2023-03-05T07:52:55.772Z,8.86
2023-03-05T07:57:58.969Z,9.00
2023-03-05T08:03:02.187Z,9.20
2023-03-05T08:08:05.790Z,9.11
2023-03-05T08:13:09.022Z,8.82
2023-03-05T08:18:13.966Z,7.91
2023-03-05T08:23:16.971Z,6.87
2023-03-05T08:28:20.085Z,6.33
2023-03-05T08:33:23.198Z,6.30
2023-03-05T08:38:26.954Z,6.27
2023-03-05T08:43:31.466Z,5.69
2023-03-05T08:48:35.273Z,4.74
2023-03-05T08:53:38.785Z,4.02
2023-03-05T08:58:42.445Z,3.58
2023-03-05T09:03:45.528Z,3.21
2023-03-05T09:08:48.554Z,2.95
2023-03-05T09:13:51.769Z,2.76
2023-03-05T09:18:54.756Z,2.58
2023-03-05T09:24:00.146Z,2.42
2023-03-05T09:29:03.748Z,2.36
2023-03-05T09:34:08.392Z,2.47
2023-03-05T09:39:11.902Z,2.53
2023-03-05T09:44:30.059Z,2.68
2023-03-05T09:50:02.046Z,2.80
2023-03-05T09:55:30.038Z,2.87
2023-03-05T10:00:45.363Z,2.87
2023-03-05T10:05:58.576Z,2.81
2023-03-05T10:11:08.829Z,2.82
2023-03-05T10:16:33.109Z,2.72
2023-03-05T10:21:57.172Z,2.69
2023-03-05T10:27:14.547Z,2.95
2023-03-05T10:32:45.181Z,3.60
2023-03-05T10:38:14.384Z,4.00
2023-03-05T10:43:37.564Z,4.07
2023-03-05T10:48:46.609Z,3.55
2023-03-05T10:54:02.213Z,3.11
2023-03-05T10:59:05.116Z,2.63
2023-03-05T11:04:26.549Z,2.31
2023-03-05T11:09:32.731Z,2.52
2023-03-05T11:33:20.633Z,4.88
2023-03-05T11:38:26.648Z,5.49
2023-03-05T11:43:31.480Z,5.06
2023-03-05T11:48:40.107Z,4.20
2023-03-05T11:53:46.333Z,3.18
2023-03-05T11:59:14.308Z,2.71
2023-03-05T12:04:18.561Z,2.53
2023-03-05T12:09:25.856Z,2.18
2023-03-05T12:14:58.664Z,1.75
2023-03-05T12:20:40.688Z,1.47
2023-03-05T12:25:59.464Z,1.61
2023-03-05T12:31:09.600Z,1.81
2023-03-05T12:36:22.075Z,2.25
2023-03-05T12:41:27.961Z,2.95
2023-03-05T12:46:35.964Z,3.64
2023-03-05T12:51:41.958Z,3.78
2023-03-05T12:56:47.384Z,3.51
2023-03-05T13:02:03.834Z,3.29
2023-03-05T13:07:15.529Z,3.23
2023-03-05T13:12:18.927Z,3.02
2023-03-05T13:17:35.877Z,2.89
2023-03-05T13:22:39.182Z,3.07
2023-03-05T13:27:43.598Z,2.92
2023-03-05T13:32:52.391Z,2.72
2023-03-05T13:37:57.183Z,2.62
2023-03-05T13:43:20.828Z,2.67
2023-03-05T13:48:25.656Z,2.83
2023-03-05T13:53:31.016Z,2.85
2023-03-05T13:58:40.783Z,2.78
2023-03-05T14:03:44.095Z,2.71
2023-03-05T14:08:53.248Z,2.43
2023-03-05T14:14:06.764Z,2.18
2023-03-05T14:19:32.126Z,2.16
2023-03-05T14:24:35.235Z,2.29
2023-03-05T14:29:38.354Z,2.42
2023-03-05T14:34:42.849Z,2.48
2023-03-05T14:40:00.981Z,2.44
2023-03-05T14:45:18.530Z,2.29
2023-03-05T14:50:24.610Z,2.11
2023-03-05T14:55:32.040Z,1.83
2023-03-05T15:00:35.428Z,1.47
2023-03-05T15:05:39.559Z,1.18
2023-03-05T15:10:43.185Z,0.95
2023-03-05T15:15:48.124Z,0.82
2023-03-05T15:20:54.934Z,0.74
2023-03-05T15:25:58.011Z,0.66
2023-03-05T15:31:01.354Z,0.59
2023-03-05T15:36:05.587Z,0.51
2023-03-05T15:41:08.568Z,0.41
2023-03-05T15:46:11.735Z,0.29
2023-03-05T15:51:14.889Z,0.14
2023-03-05T15:56:18.570Z,-0.04
2023-03-05T16:01:23.572Z,-0.27
2023-03-05T16:06:26.782Z,-0.52
2023-03-05T16:11:32.802Z,-0.76
2023-03-05T16:16:36.699Z,-1.01
2023-03-05T16:21:40.045Z,-1.24
2023-03-05T16:26:43.439Z,-1.44
2023-03-05T16:31:47.782Z,-1.63
2023-03-05T16:36:52.990Z,-1.80
2023-03-05T16:41:57.973Z,-1.96
2023-03-05T16:47:01.129Z,-2.05
2023-03-05T16:52:17.736Z,-2.08
2023-03-05T16:57:24.197Z,-2.09
2023-03-05T17:02:27.408Z,-2.12
2023-03-05T17:07:30.605Z,-2.18
2023-03-05T17:12:33.726Z,-2.28
2023-03-05T17:17:38.671Z,-2.37
2023-03-05T17:22:41.887Z,-2.45
2023-03-05T17:27:44.995Z,-2.54
2023-03-05T17:32:48.095Z,-2.63
2023-03-05T17:37:51.924Z,-2.72
2023-03-05T17:42:55.234Z,-2.77
2023-03-05T17:47:58.860Z,-2.79
2023-03-05T17:53:02.077Z,-2.84
2023-03-05T17:58:05.284Z,-2.91
2023-03-05T18:03:08.489Z,-2.96
2023-03-05T18:08:11.599Z,-2.99
2023-03-05T18:13:14.615Z,-3.03
2023-03-05T18:18:18.603Z,-3.05
2023-03-05T18:23:21.880Z,-3.11
2023-03-05T18:28:26.087Z,-3.19
2023-03-05T18:33:29.189Z,-3.30
2023-03-05T18:38:32.605Z,-3.39
2023-03-05T18:43:35.824Z,-3.47
2023-03-05T18:48:39.026Z,-3.52
2023-03-05T18:53:42.156Z,-3.53
2023-03-05T18:58:45.652Z,-3.53
2023-03-05T19:03:49.427Z,-3.53
2023-03-05T19:08:57.506Z,-3.56
2023-03-05T19:14:00.620Z,-3.62
2023-03-05T19:19:16.605Z,-3.71
2023-03-05T19:24:24.218Z,-3.78
2023-03-05T19:29:33.065Z,-3.80
2023-03-05T19:34:37.220Z,-3.78
2023-03-05T19:39:40.646Z,-3.79
2023-03-05T19:44:43.746Z,-3.82
2023-03-05T19:49:46.952Z,-3.85
2023-03-05T19:54:50.161Z,-3.86
2023-03-05T19:59:53.996Z,-3.88
2023-03-05T20:04:57.809Z,-3.88
2023-03-05T20:10:01.076Z,-3.91
2023-03-05T20:15:04.473Z,-3.98
2023-03-05T20:20:08.586Z,-4.07
2023-03-05T20:25:13.634Z,-4.17
2023-03-05T20:30:18.073Z,-4.22
2023-03-05T20:35:21.904Z,-4.22
2023-03-05T20:40:25.004Z,-4.17
2023-03-05T20:45:28.228Z,-4.15
2023-03-05T20:50:33.597Z,-4.16
2023-03-05T20:55:36.696Z,-4.22
2023-03-05T21:00:40.383Z,-4.31
2023-03-05T21:05:43.428Z,-4.39
2023-03-05T21:10:46.739Z,-4.42
2023-03-05T21:15:49.847Z,-4.40
2023-03-05T21:20:52.971Z,-4.40
2023-03-05T21:25:56.094Z,-4.40
2023-03-05T21:31:06.966Z,-4.40
2023-03-05T21:36:10.380Z,-4.41
2023-03-05T21:41:13.484Z,-4.38
2023-03-05T21:46:16.674Z,-4.32
2023-03-05T21:51:22.772Z,-4.21
2023-03-05T21:56:26.592Z,-4.09
2023-03-05T22:01:29.742Z,-3.98
2023-03-05T22:06:32.802Z,-3.90
2023-03-05T22:11:36.191Z,-3.83
2023-03-05T22:16:39.253Z,-3.76
2023-03-05T22:21:42.335Z,-3.68
2023-03-05T22:26:45.455Z,-3.59
2023-03-05T22:31:48.655Z,-3.53
2023-03-05T22:36:51.767Z,-3.53
2023-03-05T22:41:55.069Z,-3.56
2023-03-05T22:46:58.178Z,-3.63
2023-03-05T22:52:01.286Z,-3.70
2023-03-05T22:57:05.043Z,-3.76
2023-03-05T23:02:08.020Z,-3.84
2023-03-05T23:07:11.048Z,-3.93
2023-03-05T23:12:14.246Z,-4.03
2023-03-05T23:17:17.475Z,-4.10
2023-03-05T23:22:20.879Z,-4.13
2023-03-05T23:27:23.989Z,-4.18
2023-03-05T23:32:30.794Z,-4.23
2023-03-05T23:37:33.888Z,-4.31
2023-03-05T23:42:38.438Z,-4.34
2023-03-05T23:47:41.743Z,-4.38
2023-03-05T23:52:45.976Z,-4.43
2023-03-05T23:57:49.391Z,-4.51
